Time;durP1;ratioP1;P1;durP2;ratioP2;P2;SDS_P1;SDS_P2;PMS_P1;PMS_P2;Temp;Humidity;BMP_temperature;BMP_pressure;BME280_temperature;BME280_humidity;BME280_pressure;Samples;Min_cycle;Max_cycle;Signal;HPM_P1;HPM_P2
2023/01/21 00:00:02;;;;;;;7.18;2.63;;;2.10;99.90;;;;;;5028760;28;20035;-70
2023/01/21 00:02:28;;;;;;;8.77;1.92;;;2.10;99.90;;;;;;5014199;28;20018;-69
2023/01/21 00:04:53;;;;;;;9.48;2.20;;;2.20;99.90;;;;;;5024290;28;20242;-70
2023/01/21 00:07:19;;;;;;;4.90;2.70;;;2.20;99.90;;;;;;5026614;28;20053;-70
2023/01/21 00:09:51;;;;;;;6.93;2.20;;;2.10;99.90;;;;;;5020949;28;20026;-69
2023/01/21 00:12:16;;;;;;;6.97;2.30;;;2.10;99.90;;;;;;5017361;28;20460;-70
2023/01/21 00:14:42;;;;;;;6.88;2.20;;;2.00;99.90;;;;;;5023397;28;20353;-69
2023/01/21 00:17:08;;;;;;;6.15;1.88;;;2.00;99.90;;;;;;5029959;28;20036;-70
2023/01/21 00:19:34;;;;;;;8.95;2.65;;;2.00;99.90;;;;;;5020515;28;20033;-70
2023/01/21 00:22:00;;;;;;;7.97;1.80;;;2.00;99.90;;;;;;5022611;28;20148;-70
2023/01/21 00:24:26;;;;;;;8.73;2.28;;;2.00;99.90;;;;;;5022334;28;20485;-69
2023/01/21 00:26:52;;;;;;;10.93;2.78;;;1.90;99.90;;;;;;5025847;28;20116;-69
2023/01/21 00:29:18;;;;;;;6.10;2.17;;;1.80;99.90;;;;;;5024141;28;20029;-69
2023/01/21 00:31:43;;;;;;;7.55;2.70;;;1.80;99.90;;;;;;5020769;28;20033;-71
2023/01/21 00:34:10;;;;;;;5.97;2.22;;;1.80;99.90;;;;;;5027841;28;20041;-68
2023/01/21 00:36:36;;;;;;;8.52;2.42;;;1.90;99.90;;;;;;5019747;28;20121;-70
2023/01/21 00:39:02;;;;;;;7.15;2.60;;;1.90;99.90;;;;;;5026749;28;20036;-68
2023/01/21 00:41:36;;;;;;;9.43;2.92;;;2.00;99.90;;;;;;5016003;28;20018;-69
2023/01/21 00:44:03;;;;;;;8.65;2.58;;;2.10;99.90;;;;;;5015848;28;20056;-69
2023/01/21 00:46:32;;;;;;;5.93;2.60;;;2.10;99.90;;;;;;5014940;28;20061;-69
2023/01/21 00:48:59;;;;;;;7.28;2.88;;;2.10;99.90;;;;;;5027781;28;20096;-69
2023/01/21 00:51:25;;;;;;;5.53;2.67;;;2.00;99.90;;;;;;5025380;28;20032;-69
2023/01/21 00:53:51;;;;;;;6.43;2.53;;;1.90;99.90;;;;;;5023783;28;20060;-69
2023/01/21 00:56:17;;;;;;;8.18;2.78;;;1.90;99.90;;;;;;5027167;28;20049;-70
2023/01/21 00:58:42;;;;;;;11.32;2.72;;;1.70;99.90;;;;;;5019132;28;20026;-69
2023/01/21 01:01:12;;;;;;;10.65;3.35;;;1.50;99.90;;;;;;5021979;28;20072;-69
2023/01/21 01:03:40;;;;;;;6.18;2.90;;;1.50;99.90;;;;;;5022742;28;20450;-69
2023/01/21 01:06:20;;;;;;;6.00;3.17;;;1.60;99.90;;;;;;5022678;28;20041;-70
2023/01/21 01:08:48;;;;;;;4.25;2.75;;;1.50;99.90;;;;;;5023634;28;20029;-70
2023/01/21 01:11:14;;;;;;;7.60;3.33;;;1.60;99.90;;;;;;5018563;28;20029;-69
2023/01/21 01:13:40;;;;;;;10.07;3.40;;;1.50;99.90;;;;;;5021201;28;20033;-69
2023/01/21 01:16:07;;;;;;;8.63;3.92;;;1.40;99.90;;;;;;5018970;28;20026;-69
2023/01/21 01:18:37;;;;;;;7.20;3.25;;;1.30;99.90;;;;;;5026254;28;20476;-69
2023/01/21 01:21:03;;;;;;;6.22;3.08;;;1.20;99.90;;;;;;5026441;28;20021;-70
2023/01/21 01:23:29;;;;;;;7.00;3.47;;;1.30;99.90;;;;;;5026173;28;20087;-69
2023/01/21 01:26:07;;;;;;;7.40;3.28;;;1.30;99.90;;;;;;5030104;28;20128;-69
2023/01/21 01:28:33;;;;;;;8.70;3.45;;;1.30;99.90;;;;;;5025805;28;20029;-69
2023/01/21 01:31:00;;;;;;;7.25;3.17;;;1.20;99.90;;;;;;5027749;28;20029;-69
2023/01/21 01:33:26;;;;;;;8.70;3.28;;;1.20;99.90;;;;;;5021575;28;20100;-70
2023/01/21 01:35:52;;;;;;;6.05;3.33;;;1.10;99.90;;;;;;5023800;28;20021;-69
2023/01/21 01:38:20;;;;;;;11.27;4.00;;;1.20;99.90;;;;;;5041787;28;20382;-69
2023/01/21 01:40:49;;;;;;;6.93;3.22;;;1.20;99.90;;;;;;5019067;28;20396;-68
2023/01/21 01:43:43;;;;;;;6.65;3.22;;;1.40;99.90;;;;;;5020450;28;20045;-69
2023/01/21 01:46:09;;;;;;;12.00;3.67;;;1.50;99.90;;;;;;5028668;28;20030;-69
2023/01/21 01:48:35;;;;;;;10.40;4.13;;;1.70;99.90;;;;;;5024789;28;20029;-69
2023/01/21 01:51:06;;;;;;;7.75;4.60;;;1.70;99.90;;;;;;5025456;28;20029;-69
2023/01/21 01:53:34;;;;;;;10.45;4.60;;;1.80;99.90;;;;;;5027601;28;20025;-69
2023/01/21 01:56:00;;;;;;;11.55;4.05;;;1.80;99.90;;;;;;5022819;28;20470;-68
2023/01/21 01:58:29;;;;;;;9.35;4.55;;;1.90;99.90;;;;;;5025847;28;20028;-69
2023/01/21 02:00:55;;;;;;;9.68;4.30;;;1.80;99.90;;;;;;5026922;28;20018;-70
2023/01/21 02:06:06;;;;;;;9.00;4.15;;;1.50;99.90;;;;;;5026515;28;20122;-69
2023/01/21 02:08:34;;;;;;;8.50;4.32;;;1.40;99.90;;;;;;5025408;28;20108;-70
2023/01/21 02:11:01;;;;;;;8.95;3.95;;;1.40;99.90;;;;;;5017478;28;20022;-69
2023/01/21 02:13:30;;;;;;;8.93;4.35;;;1.40;99.90;;;;;;5024183;28;20030;-69
2023/01/21 02:16:17;;;;;;;10.32;3.63;;;1.40;99.90;;;;;;5021070;28;20105;-70
2023/01/21 02:18:48;;;;;;;8.18;4.28;;;1.40;99.90;;;;;;5019596;28;20033;-69
2023/01/21 02:21:54;;;;;;;8.30;4.55;;;1.30;99.90;;;;;;5022986;28;20033;-69
2023/01/21 02:24:51;;;;;;;9.48;4.45;;;1.20;99.90;;;;;;4962159;28;20649;-69
2023/01/21 02:27:31;;;;;;;9.25;4.45;;;1.10;99.90;;;;;;4959162;28;20492;-70
2023/01/21 02:30:29;;;;;;;13.20;4.28;;;1.00;99.90;;;;;;4964761;28;20035;-71
2023/01/21 02:33:25;;;;;;;9.27;3.95;;;1.00;99.90;;;;;;4961744;28;20410;-69
2023/01/21 02:35:54;;;;;;;8.18;4.80;;;0.90;99.90;;;;;;4955190;28;20086;-70
2023/01/21 02:38:40;;;;;;;14.30;4.82;;;0.90;99.90;;;;;;4965310;28;20070;-70
2023/01/21 02:41:20;;;;;;;9.27;4.60;;;0.80;99.90;;;;;;4969897;28;20031;-71
2023/01/21 02:44:00;;;;;;;9.55;4.60;;;0.80;99.90;;;;;;4970814;28;20079;-72
2023/01/21 02:46:36;;;;;;;9.75;5.20;;;0.60;99.90;;;;;;4964643;28;20073;-69
2023/01/21 02:49:15;;;;;;;8.20;4.13;;;0.50;99.90;;;;;;4969286;28;20031;-70
2023/01/21 02:51:46;;;;;;;10.50;5.03;;;0.30;99.90;;;;;;4972804;28;20474;-69
2023/01/21 02:54:14;;;;;;;9.98;4.68;;;0.20;99.90;;;;;;4979839;28;20405;-69
2023/01/21 02:56:41;;;;;;;9.68;5.10;;;0.00;99.90;;;;;;5031238;28;20465;-70
2023/01/21 02:59:07;;;;;;;11.50;4.95;;;0.00;99.90;;;;;;5025699;28;20026;-69
2023/01/21 03:02:03;;;;;;;8.82;5.30;;;0.00;99.90;;;;;;5031819;28;20481;-69
2023/01/21 03:04:42;;;;;;;11.82;5.13;;;-0.20;99.90;;;;;;5028914;28;20022;-71
2023/01/21 03:07:39;;;;;;;10.90;5.38;;;-0.20;99.90;;;;;;5024681;28;20033;-69
2023/01/21 03:10:25;;;;;;;14.23;5.13;;;-0.40;99.90;;;;;;5033503;28;20113;-70
2023/01/21 03:13:02;;;;;;;12.40;5.13;;;-0.40;99.90;;;;;;5024936;28;20026;-69
2023/01/21 03:18:35;;;;;;;10.48;5.32;;;-0.50;99.90;;;;;;5022526;28;20068;-70
2023/01/21 03:21:06;;;;;;;8.63;4.95;;;-0.60;99.90;;;;;;5028296;28;20413;-70
2023/01/21 03:23:39;;;;;;;9.80;4.95;;;-0.60;99.90;;;;;;5026225;28;20537;-68
2023/01/21 03:26:07;;;;;;;10.50;4.43;;;-0.60;99.90;;;;;;5029874;28;20037;-70
2023/01/21 03:28:38;;;;;;;13.40;4.32;;;-0.60;99.90;;;;;;5022329;28;20037;-69
2023/01/21 03:31:16;;;;;;;12.25;5.65;;;-0.60;99.90;;;;;;5031481;28;20029;-69
2023/01/21 03:33:45;;;;;;;13.75;5.28;;;-0.50;99.90;;;;;;5028949;28;20056;-70
2023/01/21 03:36:22;;;;;;;11.75;5.88;;;-0.30;99.90;;;;;;5036034;28;20034;-70
2023/01/21 03:38:51;;;;;;;11.00;5.57;;;-0.20;99.90;;;;;;5034691;28;20021;-68
2023/01/21 03:41:24;;;;;;;11.40;5.15;;;-0.20;99.90;;;;;;5031073;28;20049;-70
2023/01/21 03:43:50;;;;;;;;;;;-0.40;99.90;;;;;;5019201;28;20093;-69
2023/01/21 03:46:26;;;;;;;8.50;5.70;;;-0.40;99.90;;;;;;5029461;28;19931;-70
2023/01/21 03:49:05;;;;;;;10.45;5.47;;;-0.50;99.90;;;;;;5033900;28;20040;-70
2023/01/21 03:51:40;;;;;;;11.35;5.93;;;-0.50;99.90;;;;;;5028130;28;20032;-70
2023/01/21 03:54:06;;;;;;;16.20;6.35;;;-0.50;99.90;;;;;;5028572;28;20049;-69
2023/01/21 03:56:32;;;;;;;12.15;6.18;;;-0.40;99.90;;;;;;5023371;28;20072;-69
2023/01/21 03:58:58;;;;;;;12.88;6.20;;;-0.40;99.90;;;;;;5030892;28;20020;-70
2023/01/21 04:01:24;;;;;;;13.75;5.72;;;-0.50;99.90;;;;;;5030221;28;20029;-69
2023/01/21 04:03:49;;;;;;;16.42;5.93;;;-0.60;99.90;;;;;;5027356;28;20061;-69
2023/01/21 04:06:18;;;;;;;11.02;6.20;;;-0.80;99.90;;;;;;5032867;28;20045;-70
2023/01/21 04:08:44;;;;;;;9.57;5.65;;;-0.80;99.90;;;;;;5030321;28;21543;-68
2023/01/21 04:11:10;;;;;;;10.05;5.43;;;-0.90;99.90;;;;;;5024348;28;20060;-70
2023/01/21 04:13:36;;;;;;;10.70;5.22;;;-1.00;99.90;;;;;;5029152;28;20543;-70
2023/01/21 04:16:02;;;;;;;9.93;6.00;;;-1.10;99.90;;;;;;5026324;28;20085;-70
2023/01/21 04:18:28;;;;;;;14.55;5.57;;;-1.10;99.90;;;;;;5025814;28;20080;-68
2023/01/21 04:20:54;;;;;;;12.45;6.13;;;-1.10;99.90;;;;;;5022395;28;20017;-69
2023/01/21 04:23:20;;;;;;;9.73;6.25;;;-1.10;99.90;;;;;;5029292;28;20030;-70
2023/01/21 04:25:50;;;;;;;12.90;6.10;;;-1.10;99.90;;;;;;5022946;28;20030;-70
2023/01/21 04:28:17;;;;;;;11.60;5.85;;;-1.10;99.90;;;;;;5029766;28;20474;-70
2023/01/21 04:30:42;;;;;;;14.45;6.18;;;-1.00;99.90;;;;;;5027511;28;20104;-70
2023/01/21 04:33:08;;;;;;;11.50;6.47;;;-1.00;99.90;;;;;;5030172;28;20113;-69
2023/01/21 04:35:35;;;;;;;14.63;6.07;;;-1.00;99.90;;;;;;5023586;28;20040;-69
2023/01/21 04:38:01;;;;;;;12.82;6.28;;;-1.00;99.90;;;;;;5019028;28;20092;-70
2023/01/21 04:40:27;;;;;;;14.77;6.80;;;-1.00;99.90;;;;;;5025666;28;20029;-70
2023/01/21 04:42:52;;;;;;;12.25;6.57;;;-1.00;99.90;;;;;;5028854;23;20112;-69
2023/01/21 04:45:18;;;;;;;12.38;6.18;;;-1.10;99.90;;;;;;5010459;28;20026;-69
2023/01/21 04:47:45;;;;;;;14.32;6.95;;;-1.20;99.90;;;;;;5007161;28;20091;-69
2023/01/21 04:50:12;;;;;;;11.93;5.80;;;-1.20;99.90;;;;;;5010672;28;20032;-69
2023/01/21 04:52:38;;;;;;;13.68;6.80;;;-1.30;99.90;;;;;;5008421;28;20026;-68
2023/01/21 04:55:05;;;;;;;13.88;6.50;;;-1.30;99.90;;;;;;5010833;28;20034;-69
2023/01/21 04:57:31;;;;;;;20.25;8.25;;;-1.30;99.90;;;;;;5003790;28;20117;-69
2023/01/21 04:59:57;;;;;;;14.23;7.57;;;-1.20;99.90;;;;;;5009174;28;20134;-69
2023/01/21 05:02:22;;;;;;;16.20;7.82;;;-1.00;99.90;;;;;;5008144;28;20129;-69
2023/01/21 05:04:48;;;;;;;19.17;8.70;;;-0.70;99.90;;;;;;5010508;28;20648;-69
2023/01/21 05:07:14;;;;;;;16.75;7.43;;;-0.50;99.90;;;;;;5011014;28;20053;-69
2023/01/21 05:09:40;;;;;;;20.77;7.95;;;-0.30;99.90;;;;;;5008579;28;20033;-69
2023/01/21 05:12:07;;;;;;;16.08;7.57;;;-0.40;99.90;;;;;;5007908;28;20034;-68
2023/01/21 05:14:33;;;;;;;16.98;8.90;;;-0.40;99.90;;;;;;5005243;28;20533;-69
2023/01/21 05:16:59;;;;;;;17.10;7.80;;;-0.50;99.90;;;;;;5010631;28;20105;-69
2023/01/21 05:19:24;;;;;;;16.50;8.43;;;-0.50;99.90;;;;;;5007990;28;20045;-69
2023/01/21 05:21:51;;;;;;;19.02;8.18;;;-0.40;99.90;;;;;;5010205;28;20481;-69
2023/01/21 05:24:16;;;;;;;16.98;7.57;;;-0.50;99.90;;;;;;5008070;28;20033;-68
2023/01/21 05:26:42;;;;;;;14.38;7.53;;;-0.40;99.90;;;;;;5008252;28;20038;-69
2023/01/21 05:29:09;;;;;;;17.75;7.53;;;-0.20;99.90;;;;;;5008748;28;20506;-69
2023/01/21 05:31:34;;;;;;;20.27;8.40;;;-0.10;99.90;;;;;;5008413;28;20026;-68
2023/01/21 05:34:00;;;;;;;20.35;8.40;;;-0.10;99.90;;;;;;5008226;28;20389;-68
2023/01/21 05:36:26;;;;;;;20.92;8.77;;;0.00;99.90;;;;;;5007924;28;20537;-69
2023/01/21 05:38:52;;;;;;;16.60;7.82;;;0.00;99.90;;;;;;5009376;28;20032;-69
2023/01/21 05:41:17;;;;;;;15.85;7.13;;;0.00;99.90;;;;;;5009590;28;20544;-68
2023/01/21 05:43:43;;;;;;;20.35;8.23;;;-0.10;99.90;;;;;;5003221;28;20052;-68
2023/01/21 05:46:09;;;;;;;13.82;7.65;;;-0.10;99.90;;;;;;5005716;28;20067;-69
2023/01/21 05:48:35;;;;;;;22.42;9.05;;;-0.10;99.90;;;;;;5006865;28;20057;-68
2023/01/21 05:51:00;;;;;;;17.27;8.15;;;-0.20;99.90;;;;;;5009901;28;20037;-68
2023/01/21 05:53:26;;;;;;;18.00;7.88;;;-0.20;99.90;;;;;;5006648;28;20033;-69
2023/01/21 05:55:54;;;;;;;16.15;9.55;;;-0.20;99.90;;;;;;5008728;28;20486;-69
2023/01/21 05:58:21;;;;;;;16.85;8.35;;;-0.20;99.90;;;;;;5005589;28;20025;-69
2023/01/21 06:00:47;;;;;;;17.58;7.45;;;-0.20;99.90;;;;;;5009369;28;20034;-69
2023/01/21 06:03:17;;;;;;;18.17;8.23;;;-0.40;99.90;;;;;;5004342;28;20104;-69
2023/01/21 06:05:43;;;;;;;19.88;8.43;;;-0.50;99.90;;;;;;5007655;28;20037;-68
2023/01/21 06:08:10;;;;;;;15.63;7.50;;;-0.60;99.90;;;;;;5009827;28;20025;-69
2023/01/21 06:10:37;;;;;;;18.63;8.43;;;-0.60;99.90;;;;;;5005613;28;20129;-68
2023/01/21 06:13:02;;;;;;;16.23;7.72;;;-0.60;99.90;;;;;;5008538;28;20056;-67
2023/01/21 06:15:28;;;;;;;19.67;8.32;;;-0.70;99.90;;;;;;5006839;28;20512;-69
2023/01/21 06:17:55;;;;;;;15.88;8.80;;;-0.70;99.90;;;;;;5008713;28;20425;-68
2023/01/21 06:20:21;;;;;;;14.88;7.35;;;-0.80;99.90;;;;;;5007630;28;20133;-68
2023/01/21 06:22:47;;;;;;;18.52;8.07;;;-0.80;99.90;;;;;;5009113;28;20148;-68
2023/01/21 06:25:12;;;;;;;16.83;7.35;;;-0.80;99.90;;;;;;5006147;28;20117;-69
2023/01/21 06:27:38;;;;;;;15.57;8.20;;;-0.90;99.90;;;;;;5005578;28;20094;-69
2023/01/21 06:30:08;;;;;;;15.23;7.68;;;-1.00;99.90;;;;;;5009365;28;20029;-69
2023/01/21 06:32:35;;;;;;;16.95;8.55;;;-1.00;99.90;;;;;;5005908;28;20026;-69
2023/01/21 06:35:01;;;;;;;18.98;8.48;;;-1.00;99.90;;;;;;5009830;28;20037;-69
2023/01/21 06:37:26;;;;;;;21.35;9.07;;;-1.00;99.90;;;;;;5005730;28;20058;-69
2023/01/21 06:39:52;;;;;;;16.95;8.30;;;-1.00;99.90;;;;;;5013043;28;20123;-69
2023/01/21 06:42:19;;;;;;;20.77;8.75;;;-1.00;99.90;;;;;;5010714;28;20113;-69
2023/01/21 06:44:45;;;;;;;23.58;8.20;;;-0.90;99.90;;;;;;5011443;28;20168;-69
2023/01/21 06:47:12;;;;;;;21.10;9.38;;;-0.90;99.90;;;;;;5012369;28;20038;-69
2023/01/21 06:49:39;;;;;;;22.17;8.63;;;-0.80;99.90;;;;;;5010679;28;20026;-69
2023/01/21 06:52:05;;;;;;;20.65;9.18;;;-0.90;99.90;;;;;;5013113;28;20108;-69
2023/01/21 06:54:31;;;;;;;18.52;8.77;;;-0.80;99.90;;;;;;5009617;28;20026;-69
2023/01/21 06:56:57;;;;;;;24.25;9.00;;;-0.90;99.90;;;;;;5009007;28;20446;-69
2023/01/21 06:59:23;;;;;;;23.92;9.18;;;-0.90;99.90;;;;;;5008297;28;20053;-68
2023/01/21 07:01:49;;;;;;;16.30;8.70;;;-0.80;99.90;;;;;;5011875;28;20044;-69
2023/01/21 07:04:14;;;;;;;25.13;10.25;;;-0.80;99.90;;;;;;5009937;28;20026;-69
2023/01/21 07:06:40;;;;;;;20.88;9.30;;;-0.80;99.90;;;;;;5009666;28;20041;-69
2023/01/21 07:09:07;;;;;;;21.70;10.20;;;-0.70;99.90;;;;;;5011183;28;20029;-69
2023/01/21 07:11:33;;;;;;;20.85;8.75;;;-0.70;99.90;;;;;;5010332;28;20034;-69
2023/01/21 07:13:59;;;;;;;22.30;9.90;;;-0.70;99.90;;;;;;5007665;28;20117;-69
2023/01/21 07:16:25;;;;;;;22.67;7.80;;;-0.60;99.90;;;;;;5010143;28;20052;-69
2023/01/21 07:18:51;;;;;;;18.73;9.02;;;-0.50;99.90;;;;;;5012751;28;20049;-69
2023/01/21 07:21:17;;;;;;;22.15;8.32;;;-0.50;99.90;;;;;;5012539;28;20386;-69
2023/01/21 07:23:43;;;;;;;18.15;8.45;;;-0.60;99.90;;;;;;5010736;28;20026;-69
2023/01/21 07:26:09;;;;;;;14.15;8.23;;;-0.70;99.90;;;;;;5010306;28;20506;-69
2023/01/21 07:28:35;;;;;;;16.70;8.73;;;-0.80;99.90;;;;;;5005001;28;20030;-69
2023/01/21 07:31:02;;;;;;;18.05;8.75;;;-0.90;99.90;;;;;;5007898;28;20485;-69
2023/01/21 07:33:28;;;;;;;14.90;8.70;;;-0.90;99.90;;;;;;5006865;28;20041;-68
2023/01/21 07:35:55;;;;;;;18.27;8.88;;;-0.90;99.90;;;;;;5005806;28;20044;-69
2023/01/21 07:38:21;;;;;;;14.80;8.02;;;-0.90;99.90;;;;;;5011865;28;20084;-69
2023/01/21 07:40:50;;;;;;;19.80;9.75;;;-0.90;99.90;;;;;;5010967;28;20022;-69
2023/01/21 07:43:16;;;;;;;20.65;9.35;;;-0.80;99.90;;;;;;5011498;28;20046;-69
2023/01/21 07:45:42;;;;;;;21.40;8.45;;;-0.80;99.90;;;;;;5010198;28;20049;-69
2023/01/21 07:48:11;;;;;;;18.98;9.77;;;-0.80;99.90;;;;;;5011449;28;20083;-70
2023/01/21 07:50:36;;;;;;;19.25;8.93;;;-0.80;99.90;;;;;;5007580;28;20065;-69
2023/01/21 07:53:03;;;;;;;18.70;9.25;;;-0.80;99.90;;;;;;5010155;28;20429;-69
2023/01/21 07:55:29;;;;;;;16.92;9.57;;;-0.80;99.90;;;;;;5009612;28;20052;-70
2023/01/21 07:57:56;;;;;;;20.30;8.82;;;-0.70;99.90;;;;;;5011275;28;20081;-70
2023/01/21 08:00:23;;;;;;;18.25;9.50;;;-0.60;99.90;;;;;;5010141;28;20030;-70
2023/01/21 08:02:53;;;;;;;22.10;9.82;;;-0.60;99.90;;;;;;5010233;28;20041;-69
2023/01/21 08:05:20;;;;;;;23.23;10.13;;;-0.60;99.90;;;;;;5010800;28;20389;-68
2023/01/21 08:07:46;;;;;;;19.13;8.77;;;-0.50;99.90;;;;;;5000836;28;20026;-69
2023/01/21 08:10:12;;;;;;;18.08;8.18;;;-0.50;99.90;;;;;;5011330;28;20488;-68
2023/01/21 08:12:40;;;;;;;22.05;8.98;;;-0.50;99.90;;;;;;5004638;28;20465;-69
2023/01/21 08:15:07;;;;;;;18.23;8.77;;;-0.50;99.90;;;;;;5009116;28;20061;-68
2023/01/21 08:17:36;;;;;;;16.40;7.88;;;-0.50;99.90;;;;;;5008542;28;20028;-69
2023/01/21 08:20:02;;;;;;;18.48;8.75;;;-0.40;99.90;;;;;;5011566;28;20029;-68
2023/01/21 08:22:28;;;;;;;23.02;9.05;;;-0.40;99.90;;;;;;5009191;28;20025;-69
2023/01/21 08:24:54;;;;;;;20.00;9.13;;;-0.40;99.90;;;;;;5010564;28;20026;-69
2023/01/21 08:27:20;;;;;;;28.17;9.77;;;-0.50;99.90;;;;;;5009965;28;20156;-69
2023/01/21 08:29:47;;;;;;;21.05;8.68;;;-0.40;99.90;;;;;;5009111;28;20021;-70
2023/01/21 08:32:13;;;;;;;19.02;9.60;;;-0.40;99.90;;;;;;5009313;28;20450;-69
2023/01/21 08:34:39;;;;;;;23.08;9.52;;;-0.30;99.90;;;;;;5004575;28;20030;-69
2023/01/21 08:37:05;;;;;;;21.35;9.73;;;-0.20;99.90;;;;;;5007882;28;20122;-68
2023/01/21 08:39:31;;;;;;;34.42;14.18;;;-0.20;99.90;;;;;;5006245;28;20021;-68
2023/01/21 08:41:56;;;;;;;27.70;11.38;;;-0.20;99.90;;;;;;5010864;28;20552;-65
2023/01/21 08:44:22;;;;;;;22.13;10.18;;;-0.10;99.90;;;;;;5003780;28;20116;-69
2023/01/21 08:46:48;;;;;;;20.63;9.95;;;0.00;99.90;;;;;;5008497;28;20129;-67
2023/01/21 08:49:14;;;;;;;20.38;9.27;;;0.00;99.90;;;;;;5010886;28;20030;-68
2023/01/21 08:51:40;;;;;;;24.85;9.05;;;0.00;99.90;;;;;;5008326;28;20481;-68
2023/01/21 08:54:07;;;;;;;25.52;9.18;;;-0.10;99.90;;;;;;5010741;28;20456;-69
2023/01/21 08:56:33;;;;;;;23.27;10.32;;;0.00;99.90;;;;;;5005548;28;20030;-68
2023/01/21 08:58:59;;;;;;;17.38;9.07;;;0.00;99.90;;;;;;5005425;28;20108;-68
2023/01/21 09:01:25;;;;;;;25.92;10.82;;;0.20;99.90;;;;;;5003329;28;20030;-69
2023/01/21 09:03:56;;;;;;;20.23;9.55;;;0.20;99.90;;;;;;5006228;28;20449;-68
2023/01/21 09:06:23;;;;;;;21.23;8.07;;;0.30;99.90;;;;;;5005268;28;20046;-68
2023/01/21 09:08:48;;;;;;;18.90;8.35;;;0.30;99.90;;;;;;5010298;28;20026;-68
2023/01/21 09:11:16;;;;;;;18.75;9.05;;;0.40;99.90;;;;;;5008686;28;20492;-68
2023/01/21 09:13:43;;;;;;;19.63;10.38;;;0.40;99.90;;;;;;5003085;28;20190;-69
2023/01/21 09:16:21;;;;;;;21.02;9.20;;;0.40;99.90;;;;;;5005539;28;20038;-68
2023/01/21 09:18:47;;;;;;;19.35;10.02;;;0.40;99.90;;;;;;5008114;28;20076;-68
2023/01/21 09:21:14;;;;;;;21.90;9.90;;;0.50;99.90;;;;;;5009542;28;20034;-68
2023/01/21 09:23:40;;;;;;;18.42;9.82;;;0.60;99.90;;;;;;5008326;28;20026;-69
2023/01/21 09:26:09;;;;;;;22.13;9.63;;;0.60;99.90;;;;;;5006508;28;20045;-68
2023/01/21 09:28:37;;;;;;;22.55;10.07;;;0.60;99.90;;;;;;5003392;28;20030;-68
2023/01/21 09:31:09;;;;;;;23.75;10.02;;;0.60;99.90;;;;;;5007199;28;20405;-69
2023/01/21 09:33:37;;;;;;;20.33;9.27;;;0.70;99.90;;;;;;5005811;28;20036;-68
2023/01/21 09:36:05;;;;;;;24.23;11.07;;;0.80;99.90;;;;;;5007087;28;20083;-69
2023/01/21 09:38:30;;;;;;;24.55;10.45;;;0.80;99.90;;;;;;5006784;28;20052;-68
2023/01/21 09:41:19;;;;;;;21.08;9.80;;;0.80;99.90;;;;;;5009733;28;20493;-68
2023/01/21 09:44:03;;;;;;;22.77;10.30;;;0.80;99.90;;;;;;5004945;28;20469;-70
2023/01/21 09:46:34;;;;;;;23.50;10.70;;;0.80;99.90;;;;;;4999977;28;20382;-69
2023/01/21 09:49:02;;;;;;;18.30;9.50;;;0.90;99.90;;;;;;5006980;28;20022;-70
2023/01/21 09:51:36;;;;;;;22.90;9.80;;;0.90;99.90;;;;;;5007831;28;20034;-68
2023/01/21 09:54:09;;;;;;;23.88;10.32;;;1.00;99.90;;;;;;5009137;28;20026;-69
2023/01/21 09:56:46;;;;;;;22.50;11.88;;;1.00;99.90;;;;;;5007076;28;20018;-69
2023/01/21 09:59:50;;;;;;;30.00;10.40;;;1.10;99.90;;;;;;4993482;28;20414;-67
2023/01/21 10:02:47;;;;;;;20.33;10.65;;;1.10;99.90;;;;;;4990665;28;20192;-67
2023/01/21 10:05:28;;;;;;;20.60;9.70;;;1.20;99.90;;;;;;5005332;28;20045;-69
2023/01/21 10:07:57;;;;;;;20.38;9.43;;;1.20;99.90;;;;;;5003096;28;20033;-71
2023/01/21 10:10:28;;;;;;;22.92;9.77;;;1.30;99.90;;;;;;5003383;28;20444;-68
2023/01/21 10:13:00;;;;;;;21.73;10.05;;;1.30;99.90;;;;;;5003994;28;20042;-68
2023/01/21 10:15:57;;;;;;;19.30;9.48;;;1.30;99.90;;;;;;5002695;28;20608;-70
2023/01/21 10:18:27;;;;;;;19.05;10.15;;;1.30;99.90;;;;;;5007040;28;20030;-69
2023/01/21 10:21:03;;;;;;;20.77;11.15;;;1.30;99.90;;;;;;5009214;28;20034;-70
2023/01/21 10:23:38;;;;;;;19.80;9.25;;;1.30;99.90;;;;;;5005389;28;20474;-69
2023/01/21 10:26:07;;;;;;;21.38;10.30;;;1.40;99.90;;;;;;5001974;28;20509;-68
2023/01/21 10:28:36;;;;;;;14.70;9.60;;;1.50;99.90;;;;;;5003656;28;20398;-68
2023/01/21 10:31:10;;;;;;;19.10;9.40;;;1.50;99.90;;;;;;5008814;28;20049;-69
2023/01/21 10:33:36;;;;;;;18.20;10.77;;;1.50;99.90;;;;;;5003760;28;20389;-70
2023/01/21 10:36:20;;;;;;;20.73;10.80;;;1.60;99.90;;;;;;5008599;28;20033;-70
2023/01/21 10:38:58;;;;;;;20.98;9.70;;;1.70;99.90;;;;;;5002688;28;20370;-69
2023/01/21 10:41:45;;;;;;;19.52;11.23;;;1.80;99.90;;;;;;5000406;28;20033;-68
2023/01/21 10:44:36;;;;;;;21.52;9.55;;;1.80;99.90;;;;;;5007874;28;20046;-71
2023/01/21 10:47:20;;;;;;;18.88;9.68;;;1.90;99.90;;;;;;5005363;28;20038;-70
2023/01/21 10:50:17;;;;;;;15.70;9.68;;;2.10;99.90;;;;;;5002788;28;20041;-68
2023/01/21 10:52:56;;;;;;;18.95;9.20;;;2.10;99.90;;;;;;4999690;28;20053;-69
2023/01/21 10:55:40;;;;;;;21.23;10.40;;;2.20;99.90;;;;;;5002262;28;20030;-69
2023/01/21 10:58:27;;;;;;;22.27;10.90;;;2.40;99.90;;;;;;5006247;28;20038;-69
2023/01/21 11:00:56;;;;;;;19.02;9.07;;;2.40;99.90;;;;;;5005377;28;20033;-68
2023/01/21 11:03:40;;;;;;;17.20;9.60;;;2.60;99.90;;;;;;5004764;28;20022;-70
2023/01/21 11:06:12;;;;;;;19.75;9.93;;;2.70;99.90;;;;;;5001728;28;20139;-68
2023/01/21 11:08:38;;;;;;;;;;;2.70;99.90;;;;;;5004801;28;20375;-69
2023/01/21 11:11:06;;;;;;;15.65;8.52;;;2.90;99.90;;;;;;5000261;28;19917;-69
2023/01/21 11:13:32;;;;;;;21.48;9.70;;;2.90;99.90;;;;;;5004727;28;20119;-69
2023/01/21 11:15:58;;;;;;;16.25;8.95;;;3.00;99.90;;;;;;5004534;28;20053;-69
2023/01/21 11:18:37;;;;;;;19.77;9.63;;;3.10;99.90;;;;;;5006388;28;20030;-69
2023/01/21 11:21:21;;;;;;;19.52;9.02;;;3.20;99.90;;;;;;5008531;28;20034;-70
2023/01/21 11:23:59;;;;;;;19.10;9.48;;;3.30;99.90;;;;;;5009544;28;20022;-69
2023/01/21 11:26:34;;;;;;;20.90;9.25;;;3.40;99.90;;;;;;5008277;28;20041;-69
2023/01/21 11:29:13;;;;;;;16.42;8.13;;;3.50;99.90;;;;;;5005255;28;20024;-69
2023/01/21 11:32:02;;;;;;;16.85;8.70;;;3.60;99.90;;;;;;5002947;28;20548;-70
2023/01/21 11:34:28;;;;;;;17.10;8.68;;;4.00;99.90;;;;;;5006376;28;20035;-68
2023/01/21 11:37:07;;;;;;;15.32;7.82;;;4.60;99.90;;;;;;5007659;28;20025;-69
2023/01/21 11:39:37;;;;;;;16.77;8.25;;;5.30;99.90;;;;;;5007383;28;20048;-70
2023/01/21 11:42:14;;;;;;;12.88;8.27;;;5.80;99.90;;;;;;5007592;28;20490;-68
2023/01/21 11:45:27;;;;;;;15.35;7.28;;;6.30;99.90;;;;;;5006370;28;20536;-69
2023/01/21 11:47:54;;;;;;;12.27;7.45;;;6.70;99.90;;;;;;5001248;28;20049;-70
2023/01/21 11:50:26;;;;;;;12.18;7.35;;;6.90;99.90;;;;;;5009780;28;20029;-70
2023/01/21 11:53:10;;;;;;;11.48;7.78;;;7.10;99.90;;;;;;5006209;28;20033;-70
2023/01/21 11:55:40;;;;;;;17.45;8.52;;;7.20;99.90;;;;;;5001048;28;20022;-70
2023/01/21 11:58:34;;;;;;;12.27;7.45;;;7.40;99.90;;;;;;5004897;28;20104;-69
2023/01/21 12:01:04;;;;;;;14.60;8.07;;;7.60;99.90;;;;;;5001234;28;20031;-69
2023/01/21 12:03:35;;;;;;;11.52;7.53;;;7.70;99.90;;;;;;5003821;28;20172;-70
2023/01/21 12:06:02;;;;;;;13.80;8.30;;;7.80;99.90;;;;;;5004984;28;20038;-70
2023/01/21 12:08:31;;;;;;;12.68;8.77;;;7.90;99.90;;;;;;5003400;28;20422;-69
2023/01/21 12:11:02;;;;;;;11.65;7.53;;;7.90;99.90;;;;;;5008424;28;20040;-69
2023/01/21 12:13:37;;;;;;;13.80;7.70;;;8.10;99.90;;;;;;5001719;28;20046;-69
2023/01/21 12:16:24;;;;;;;11.25;7.13;;;8.20;99.90;;;;;;5002084;28;20029;-70
2023/01/21 12:18:58;;;;;;;11.30;7.78;;;8.40;99.90;;;;;;5003643;28;20026;-69
2023/01/21 12:21:30;;;;;;;14.88;8.05;;;8.50;99.90;;;;;;5003640;28;20060;-69
2023/01/21 12:24:04;;;;;;;10.35;7.00;;;8.90;99.90;;;;;;5007731;28;20030;-70
2023/01/21 12:26:46;;;;;;;13.20;7.28;;;9.10;99.90;;;;;;4995735;28;20045;-70
2023/01/21 12:29:21;;;;;;;8.63;6.20;;;9.50;99.90;;;;;;4997887;28;20048;-70
2023/01/21 12:32:01;;;;;;;12.10;6.28;;;9.60;99.90;;;;;;5001193;28;20460;-70
2023/01/21 12:34:54;;;;;;;12.35;6.32;;;9.40;99.90;;;;;;5005097;28;20431;-71
2023/01/21 12:37:30;;;;;;;;;;;9.50;99.90;;;;;;5009028;28;20034;-70
2023/01/21 12:40:00;;;;;;;10.38;5.80;;;9.30;99.90;;;;;;5009500;28;19910;-69
2023/01/21 12:42:36;;;;;;;10.30;5.70;;;9.60;99.90;;;;;;5004896;28;20042;-70
2023/01/21 12:45:17;;;;;;;9.85;5.20;;;9.30;99.90;;;;;;5009888;28;20076;-70
2023/01/21 12:47:51;;;;;;;12.40;5.32;;;8.70;99.90;;;;;;5000421;28;20598;-70
2023/01/21 12:50:34;;;;;;;9.85;5.00;;;8.50;99.90;;;;;;5006878;28;20026;-70
2023/01/21 12:53:49;;;;;;;9.15;5.32;;;8.20;99.90;;;;;;5008538;28;20028;-70
2023/01/21 12:57:00;;;;;;;10.57;6.00;;;7.80;99.90;;;;;;4938899;29;20063;-70
2023/01/21 12:59:36;;;;;;;7.43;5.20;;;8.30;99.90;;;;;;4909353;29;20035;-68
2023/01/21 13:02:19;;;;;;;9.38;4.97;;;8.90;99.90;;;;;;4948945;29;20391;-70
2023/01/21 13:04:53;;;;;;;8.90;5.28;;;9.60;99.90;;;;;;4948028;29;20046;-69
2023/01/21 13:07:33;;;;;;;10.60;5.00;;;10.00;99.90;;;;;;4942067;29;20089;-68
2023/01/21 13:10:13;;;;;;;9.98;5.07;;;10.20;99.90;;;;;;4947383;29;20031;-69